createdAt,value
2018-07-19T00:00:30.043Z,38.22
2018-07-19T00:03:03.395Z,38.28
2018-07-19T00:05:37.168Z,37.38
2018-07-19T00:08:08.787Z,37.72
2018-07-19T00:10:41.794Z,37.85
2018-07-19T00:13:13.503Z,37.96
2018-07-19T00:15:46.544Z,37.33
2018-07-19T00:18:26.344Z,37.98
2018-07-19T00:20:58.595Z,37.31
2018-07-19T00:23:32.342Z,37.04
2018-07-19T00:26:04.627Z,37.00
2018-07-19T00:28:35.583Z,36.78
2018-07-19T00:31:06.112Z,37.51
2018-07-19T00:33:37.338Z,37.80
2018-07-19T00:36:09.768Z,39.59
2018-07-19T00:38:42.175Z,40.62
2018-07-19T00:41:16.394Z,39.97
2018-07-19T00:43:51.022Z,39.93
2018-07-19T00:46:23.792Z,40.39
2018-07-19T00:48:57.318Z,41.36
2018-07-19T00:51:30.385Z,40.85
2018-07-19T00:54:03.871Z,41.04
2018-07-19T00:56:37.711Z,40.25
2018-07-19T00:59:09.575Z,40.51
2018-07-19T01:01:43.592Z,39.42
2018-07-19T01:04:16.729Z,39.29
2018-07-19T01:06:49.210Z,39.73
2018-07-19T01:09:22.472Z,40.33
2018-07-19T01:11:56.046Z,40.45
2018-07-19T01:14:30.004Z,41.72
2018-07-19T01:17:05.223Z,42.31
2018-07-19T01:22:29.408Z,43.04
2018-07-19T01:25:01.951Z,41.90
2018-07-19T01:27:32.313Z,42.42
2018-07-19T01:30:05.438Z,42.56
2018-07-19T01:32:36.843Z,42.70
2018-07-19T01:38:45.684Z,42.21
2018-07-19T01:41:45.003Z,42.03
2018-07-19T01:44:15.352Z,41.79
2018-07-19T01:46:46.746Z,43.21
2018-07-19T01:49:17.916Z,42.84
2018-07-19T01:51:51.753Z,42.50
2018-07-19T01:54:23.391Z,43.21
2018-07-19T01:56:54.900Z,44.08
2018-07-19T01:59:28.492Z,44.80
2018-07-19T02:02:00.338Z,45.39
2018-07-19T02:04:32.165Z,44.77
2018-07-19T02:07:02.796Z,44.81
2018-07-19T02:09:42.388Z,45.02
2018-07-19T02:12:12.695Z,45.30
2018-07-19T02:14:43.714Z,45.33
2018-07-19T02:17:15.245Z,45.70
2018-07-19T02:19:45.838Z,45.52
2018-07-19T02:22:18.758Z,44.72
2018-07-19T02:24:52.239Z,45.50
2018-07-19T02:27:22.678Z,45.51
2018-07-19T02:30:04.771Z,44.93
2018-07-19T02:32:38.952Z,45.01
2018-07-19T02:35:10.025Z,46.21
2018-07-19T02:40:12.064Z,46.61
2018-07-19T02:42:43.717Z,46.21
2018-07-19T02:45:18.493Z,46.61
2018-07-19T02:47:49.588Z,46.29
2018-07-19T02:52:56.051Z,46.29
2018-07-19T02:55:39.533Z,46.77
2018-07-19T02:58:12.038Z,46.92
2018-07-19T03:00:43.106Z,47.52
2018-07-19T03:03:18.823Z,48.40
2018-07-19T03:05:49.196Z,47.62
2018-07-19T03:08:20.493Z,47.28
2018-07-19T03:10:52.550Z,47.62
2018-07-19T03:13:23.028Z,47.69
2018-07-19T03:15:57.572Z,47.94
2018-07-19T03:18:28.996Z,48.32
2018-07-19T03:21:00.685Z,49.08
2018-07-19T03:23:36.083Z,48.45
2018-07-19T03:26:07.262Z,48.94
2018-07-19T03:28:37.652Z,48.45
2018-07-19T03:31:11.817Z,48.85
2018-07-19T03:33:46.395Z,48.08
2018-07-19T03:36:17.349Z,47.78
2018-07-19T03:38:48.218Z,48.17
2018-07-19T03:41:19.460Z,48.11
2018-07-19T03:43:49.933Z,48.38
2018-07-19T03:46:22.439Z,47.70
2018-07-19T03:48:53.901Z,48.68
2018-07-19T03:51:25.086Z,47.81
2018-07-19T03:53:55.916Z,47.70
2018-07-19T03:56:26.804Z,48.18
2018-07-19T03:58:57.837Z,48.81
2018-07-19T04:01:29.572Z,47.94
2018-07-19T04:04:00.178Z,47.73
2018-07-19T04:06:30.438Z,47.65
2018-07-19T04:09:11.724Z,47.89
2018-07-19T04:11:42.298Z,48.21
2018-07-19T04:14:28.428Z,48.63
2018-07-19T04:16:59.363Z,48.96
2018-07-19T04:19:30.060Z,47.95
2018-07-19T04:22:00.581Z,48.08
2018-07-19T04:24:36.635Z,48.53
2018-07-19T04:29:58.269Z,47.67
2018-07-19T04:32:31.059Z,47.31
2018-07-19T04:35:01.343Z,46.83
2018-07-19T04:37:32.199Z,46.78
2018-07-19T04:40:03.300Z,47.85
2018-07-19T04:42:34.402Z,47.67
2018-07-19T04:45:09.655Z,47.48
2018-07-19T04:47:44.451Z,46.75
2018-07-19T04:50:15.241Z,46.01
2018-07-19T04:52:46.951Z,45.30
2018-07-19T04:55:18.353Z,46.56
2018-07-19T04:57:52.267Z,46.38
2018-07-19T05:00:23.957Z,45.68
2018-07-19T05:02:54.153Z,45.89
2018-07-19T05:05:27.675Z,44.65
2018-07-19T05:07:57.887Z,45.07
2018-07-19T05:10:29.121Z,44.91
2018-07-19T05:13:02.100Z,44.36
2018-07-19T05:15:33.846Z,43.27
2018-07-19T05:18:04.589Z,43.32
2018-07-19T05:20:35.319Z,42.04
2018-07-19T05:23:06.007Z,42.06
2018-07-19T05:25:37.672Z,41.26
2018-07-19T05:28:28.192Z,41.99
2018-07-19T05:30:58.672Z,41.56
2018-07-19T05:33:29.268Z,41.21
2018-07-19T05:36:02.372Z,39.69
2018-07-19T05:38:36.585Z,39.74
2018-07-19T05:41:09.953Z,40.59
2018-07-19T05:43:41.854Z,41.15
2018-07-19T05:46:15.153Z,41.13
2018-07-19T05:48:56.632Z,41.41
2018-07-19T05:51:34.148Z,40.73
2018-07-19T05:54:05.983Z,40.24
2018-07-19T05:56:36.642Z,39.93
2018-07-19T05:59:18.036Z,41.39
2018-07-19T06:01:48.553Z,41.03
2018-07-19T06:04:19.954Z,40.77
2018-07-19T06:06:53.370Z,40.55
2018-07-19T06:09:25.964Z,39.81
2018-07-19T06:11:58.232Z,40.30
2018-07-19T06:14:33.677Z,39.77
2018-07-19T06:17:08.627Z,39.09
2018-07-19T06:19:39.403Z,38.96
2018-07-19T06:22:13.779Z,40.13
2018-07-19T06:24:55.966Z,39.59
2018-07-19T06:27:29.747Z,39.60
2018-07-19T06:33:34.416Z,38.53
2018-07-19T06:36:05.238Z,38.84
2018-07-19T06:38:35.986Z,39.10
2018-07-19T06:41:07.354Z,38.87
2018-07-19T06:43:40.462Z,39.11
2018-07-19T06:46:11.786Z,38.84
2018-07-19T06:48:43.925Z,37.51
2018-07-19T06:51:16.242Z,36.20
2018-07-19T06:53:47.013Z,34.94
2018-07-19T06:56:19.971Z,35.02
2018-07-19T06:58:52.266Z,35.12
2018-07-19T07:01:25.643Z,35.61
2018-07-19T07:03:57.079Z,35.24
2018-07-19T07:06:30.048Z,36.45
2018-07-19T07:09:08.020Z,36.50
2018-07-19T07:11:47.671Z,36.96
2018-07-19T07:14:18.866Z,37.06
2018-07-19T07:16:50.212Z,36.34
2018-07-19T07:19:21.856Z,35.49
2018-07-19T07:21:52.172Z,35.11
2018-07-19T07:24:24.192Z,34.31
2018-07-19T07:27:04.245Z,35.21
2018-07-19T07:29:35.646Z,35.09
2018-07-19T07:32:06.928Z,34.04
2018-07-19T07:34:38.589Z,33.31
2018-07-19T07:37:10.808Z,33.43
2018-07-19T07:39:41.141Z,33.07
2018-07-19T07:42:12.454Z,33.00
2018-07-19T07:44:43.775Z,32.67
2018-07-19T07:47:20.409Z,32.24
2018-07-19T07:49:52.399Z,32.74
2018-07-19T07:52:25.847Z,32.47
2018-07-19T07:54:57.271Z,31.95
2018-07-19T07:57:27.605Z,31.47
2018-07-19T07:59:59.224Z,32.02
2018-07-19T08:02:30.588Z,32.10
2018-07-19T08:05:03.373Z,31.82
2018-07-19T08:07:37.754Z,31.13
2018-07-19T08:10:08.616Z,32.24
2018-07-19T08:12:43.563Z,32.61
2018-07-19T08:15:23.804Z,31.81
2018-07-19T08:17:57.344Z,31.60
2018-07-19T08:20:27.972Z,31.51
2018-07-19T08:22:59.344Z,31.89
2018-07-19T08:25:31.495Z,31.83
2018-07-19T08:28:03.352Z,32.71
2018-07-19T08:30:48.939Z,33.88
2018-07-19T08:33:21.719Z,33.83
2018-07-19T08:35:54.809Z,32.45
2018-07-19T08:38:26.567Z,30.90
2018-07-19T08:40:58.920Z,30.56
2018-07-19T08:43:40.991Z,29.68
2018-07-19T08:46:19.771Z,29.16
2018-07-19T08:49:01.213Z,30.09
2018-07-19T08:51:39.700Z,28.22
2018-07-19T09:01:17.200Z,26.01
2018-07-19T09:04:06.725Z,26.12
2018-07-19T09:06:37.740Z,26.04
2018-07-19T09:09:10.435Z,25.72
2018-07-19T09:11:48.311Z,25.90
2018-07-19T09:14:23.637Z,25.56
2018-07-19T09:16:57.111Z,24.66
2018-07-19T09:19:31.775Z,24.84
2018-07-19T09:22:09.443Z,23.63
2018-07-19T09:24:47.921Z,23.34
2018-07-19T09:27:24.489Z,23.15
2018-07-19T09:29:57.762Z,22.63
2018-07-19T09:32:28.959Z,24.01
2018-07-19T09:35:02.759Z,24.14
2018-07-19T09:37:34.660Z,24.26
2018-07-19T09:40:22.534Z,23.57
2018-07-19T09:43:20.180Z,23.88
2018-07-19T09:46:02.635Z,23.46
2018-07-19T09:48:36.776Z,22.84
2018-07-19T09:51:22.193Z,22.94
2018-07-19T09:53:56.570Z,23.71
2018-07-19T09:56:28.355Z,22.82
2018-07-19T09:59:16.411Z,22.33
2018-07-19T10:01:53.985Z,21.77
2018-07-19T10:04:30.590Z,21.81
2018-07-19T10:07:04.571Z,22.14
2018-07-19T10:09:39.099Z,21.75
2018-07-19T10:12:24.558Z,20.83
2018-07-19T10:14:55.973Z,19.78
2018-07-19T10:17:29.072Z,21.11
2018-07-19T10:20:01.331Z,20.85
2018-07-19T10:22:37.138Z,20.83
2018-07-19T10:25:08.772Z,20.50
2018-07-19T10:27:39.790Z,19.98
2018-07-19T10:30:10.134Z,19.14
2018-07-19T10:32:50.366Z,19.17
2018-07-19T10:35:24.135Z,19.44
2018-07-19T10:38:03.084Z,18.59
2018-07-19T10:40:37.417Z,19.06
2018-07-19T10:43:12.062Z,19.94
2018-07-19T10:45:45.280Z,20.17
2018-07-19T10:48:17.209Z,20.52
2018-07-19T10:51:04.677Z,20.30
2018-07-19T10:53:37.487Z,20.19
2018-07-19T10:56:32.556Z,20.67
2018-07-19T10:59:07.280Z,20.41
2018-07-19T11:01:43.760Z,21.13
2018-07-19T11:04:14.345Z,21.38
2018-07-19T11:06:49.832Z,20.67
2018-07-19T11:09:20.781Z,19.91
2018-07-19T11:11:52.858Z,18.86
2018-07-19T11:14:24.430Z,19.11
2018-07-19T11:16:54.831Z,19.25
2018-07-19T11:19:30.594Z,19.71
2018-07-19T11:22:02.258Z,19.54
2018-07-19T11:24:42.184Z,19.91
2018-07-19T11:27:20.570Z,18.19
2018-07-19T11:29:52.738Z,17.61
2018-07-19T11:32:29.779Z,17.51
2018-07-19T11:35:03.424Z,17.61
2018-07-19T11:37:40.866Z,17.56
2018-07-19T11:40:15.638Z,17.56
2018-07-19T11:42:46.151Z,17.73
2018-07-19T11:45:18.434Z,17.58
2018-07-19T11:47:50.425Z,18.36
2018-07-19T11:50:28.475Z,18.97
2018-07-19T11:53:00.362Z,18.74
2018-07-19T11:55:39.305Z,19.24
2018-07-19T11:58:11.655Z,18.14
2018-07-19T12:00:47.315Z,18.37
2018-07-19T12:03:22.578Z,18.28
2018-07-19T12:05:53.232Z,18.36
2018-07-19T12:08:29.152Z,17.58
2018-07-19T12:11:07.918Z,17.36
2018-07-19T12:13:41.072Z,17.46
2018-07-19T12:16:13.085Z,17.43
2018-07-19T12:18:44.639Z,17.00
2018-07-19T12:21:30.860Z,16.95
2018-07-19T12:24:05.483Z,17.31
2018-07-19T12:26:39.381Z,17.26
2018-07-19T12:29:14.005Z,16.96
2018-07-19T12:31:56.575Z,17.04
2018-07-19T12:34:38.513Z,16.86
2018-07-19T12:37:15.956Z,16.45
2018-07-19T12:42:56.671Z,16.59
2018-07-19T12:45:28.750Z,16.51
2018-07-19T12:48:10.697Z,16.50
2018-07-19T12:50:47.099Z,15.69
2018-07-19T12:53:51.920Z,15.78
2018-07-19T12:56:24.741Z,15.70
2018-07-19T13:02:12.264Z,15.67
2018-07-19T13:04:55.659Z,15.33
2018-07-19T13:07:32.738Z,14.66
2018-07-19T13:10:05.240Z,14.63
2018-07-19T13:12:39.820Z,14.94
2018-07-19T13:17:47.558Z,15.42
2018-07-19T13:20:24.073Z,15.29
2018-07-19T13:23:00.777Z,16.12
2018-07-19T13:25:33.648Z,16.11
2018-07-19T13:28:03.934Z,15.72
2018-07-19T13:30:35.170Z,15.67
2018-07-19T13:33:07.947Z,15.23
2018-07-19T13:36:11.569Z,14.82
2018-07-19T13:38:42.346Z,14.77
2018-07-19T13:41:15.424Z,14.42
2018-07-19T13:43:47.601Z,15.64
2018-07-19T13:46:18.697Z,15.21
2018-07-19T13:48:50.369Z,14.88
2018-07-19T13:51:28.618Z,15.23
2018-07-19T13:54:47.515Z,15.91
2018-07-19T13:57:17.768Z,15.68
2018-07-19T14:00:07.514Z,15.47
2018-07-19T14:02:42.708Z,15.48
2018-07-19T14:05:15.572Z,15.67
2018-07-19T14:07:51.483Z,15.51
2018-07-19T14:10:22.574Z,15.44
2018-07-19T14:12:54.455Z,15.27
2018-07-19T14:15:25.402Z,14.97
2018-07-19T14:18:00.488Z,15.02
2018-07-19T14:26:17.757Z,15.40
2018-07-19T14:28:57.631Z,15.57
2018-07-19T14:31:33.061Z,16.10
2018-07-19T14:34:04.520Z,16.10
2018-07-19T14:36:36.321Z,15.90
2018-07-19T14:39:13.174Z,15.24
2018-07-19T14:41:59.194Z,15.27
2018-07-19T14:44:35.299Z,15.89
2018-07-19T14:47:21.318Z,16.35
2018-07-19T14:49:51.659Z,16.40
2018-07-19T14:52:23.811Z,16.92
2018-07-19T14:55:05.280Z,17.18
2018-07-19T14:57:38.094Z,17.21
2018-07-19T15:00:16.234Z,17.92
2018-07-19T15:02:48.691Z,18.06
2018-07-19T15:05:22.098Z,17.72
2018-07-19T15:07:55.522Z,17.24
2018-07-19T15:10:27.407Z,17.39
2018-07-19T15:12:59.975Z,17.59
2018-07-19T15:15:41.572Z,17.49
2018-07-19T15:18:13.885Z,17.66
2018-07-19T15:20:46.440Z,18.18
2018-07-19T15:23:18.992Z,18.42
2018-07-19T15:25:49.859Z,18.53
2018-07-19T15:28:20.737Z,18.31
2018-07-19T15:30:51.229Z,18.65
2018-07-19T15:33:25.441Z,18.45
2018-07-19T15:36:01.994Z,19.22
2018-07-19T15:38:37.188Z,18.85
2018-07-19T15:41:12.404Z,19.28
2018-07-19T15:43:47.413Z,19.47
2018-07-19T15:46:23.109Z,18.99
2018-07-19T15:48:56.427Z,19.24
2018-07-19T15:51:35.577Z,19.07
2018-07-19T15:54:09.296Z,19.77
2018-07-19T15:56:42.423Z,19.59
2018-07-19T15:59:14.266Z,19.32
2018-07-19T16:01:48.201Z,19.47
2018-07-19T16:04:21.485Z,20.01
2018-07-19T16:06:52.783Z,20.44
2018-07-19T16:09:25.523Z,20.00
2018-07-19T16:12:06.671Z,19.94
2018-07-19T16:14:40.548Z,20.50
2018-07-19T16:17:18.885Z,21.04
2018-07-19T16:19:57.312Z,21.21
2018-07-19T16:22:31.892Z,21.19
2018-07-19T16:25:08.217Z,20.67
2018-07-19T16:27:44.297Z,20.76
2018-07-19T16:30:18.087Z,20.49
2018-07-19T16:32:50.367Z,20.45
2018-07-19T16:35:22.142Z,20.20
2018-07-19T16:37:56.492Z,20.06
2018-07-19T16:40:28.043Z,20.25
2018-07-19T16:43:08.578Z,20.45
2018-07-19T16:45:45.534Z,19.98
2018-07-19T16:48:19.875Z,20.57
2018-07-19T16:50:52.173Z,21.07
2018-07-19T16:53:23.935Z,21.00
2018-07-19T16:55:56.751Z,20.81
2018-07-19T16:58:28.149Z,21.58
2018-07-19T17:00:59.553Z,21.09
2018-07-19T17:03:31.436Z,20.90
2018-07-19T17:08:29.029Z,21.56
2018-07-19T17:10:59.404Z,21.24
2018-07-19T17:13:37.530Z,21.06
2018-07-19T17:16:12.973Z,21.51
2018-07-19T17:18:48.374Z,21.17
2018-07-19T17:21:27.733Z,21.06
2018-07-19T17:23:58.642Z,21.20
2018-07-19T17:26:29.025Z,20.58
2018-07-19T17:29:00.579Z,20.47
2018-07-19T17:34:15.315Z,20.59
2018-07-19T17:36:47.211Z,21.08
2018-07-19T17:39:19.282Z,21.22
2018-07-19T17:41:53.223Z,20.67
2018-07-19T17:44:30.945Z,21.14
2018-07-19T17:47:02.608Z,20.99
2018-07-19T17:49:37.323Z,20.48
2018-07-19T17:52:08.632Z,21.00
2018-07-19T17:54:41.728Z,20.36
2018-07-19T17:57:12.988Z,20.28
2018-07-19T17:59:44.432Z,20.12
2018-07-19T18:02:17.413Z,20.64
2018-07-19T18:04:50.466Z,20.96
2018-07-19T18:07:26.465Z,20.60
2018-07-19T18:09:59.492Z,20.81
2018-07-19T18:12:33.772Z,21.18
2018-07-19T18:15:09.149Z,21.21
2018-07-19T18:17:55.179Z,21.88
2018-07-19T18:20:31.019Z,21.86
2018-07-19T18:23:08.388Z,21.55
2018-07-19T18:25:43.411Z,21.78
2018-07-19T18:28:15.950Z,22.48
2018-07-19T18:34:35.263Z,22.51
2018-07-19T18:37:09.830Z,22.65
2018-07-19T18:39:41.540Z,22.72
2018-07-19T18:42:14.944Z,22.53
2018-07-19T18:44:47.176Z,22.56
2018-07-19T18:47:18.337Z,22.68
2018-07-19T18:49:50.477Z,22.51
2018-07-19T18:52:21.231Z,22.92
2018-07-19T18:54:54.049Z,22.70
2018-07-19T18:57:25.496Z,23.16
2018-07-19T18:59:58.217Z,23.68
2018-07-19T19:02:29.906Z,23.58
2018-07-19T19:05:04.515Z,23.08
2018-07-19T19:07:36.185Z,23.64
2018-07-19T19:10:08.619Z,23.22
2018-07-19T19:12:43.054Z,23.32
2018-07-19T19:15:19.095Z,23.53
2018-07-19T19:17:51.454Z,24.27
2018-07-19T19:20:34.044Z,24.50
2018-07-19T19:23:21.414Z,24.30
2018-07-19T19:25:53.240Z,24.78
2018-07-19T19:28:30.203Z,24.16
2018-07-19T19:31:04.561Z,24.84
2018-07-19T19:33:39.944Z,24.58
2018-07-19T19:36:18.920Z,25.05
2018-07-19T19:38:50.311Z,24.03
2018-07-19T19:41:22.144Z,24.99
2018-07-19T19:43:56.429Z,25.30
2018-07-19T19:46:28.083Z,26.05
2018-07-19T19:49:00.102Z,26.83
2018-07-19T19:51:31.546Z,27.40
2018-07-19T19:54:02.706Z,27.28
2018-07-19T19:56:34.508Z,27.33
2018-07-19T19:59:05.506Z,28.11
2018-07-19T20:01:37.290Z,28.03
2018-07-19T20:04:09.213Z,28.15
2018-07-19T20:06:40.460Z,28.78
2018-07-19T20:13:34.448Z,28.83
2018-07-19T20:16:07.275Z,28.42
2018-07-19T20:18:44.290Z,28.97
2018-07-19T20:21:21.725Z,28.03
2018-07-19T20:23:56.392Z,28.07
2018-07-19T20:26:29.327Z,28.73
2018-07-19T20:29:03.149Z,27.93
2018-07-19T20:31:36.226Z,28.03
2018-07-19T20:34:13.312Z,28.62
2018-07-19T20:36:43.639Z,29.14
2018-07-19T20:39:20.115Z,30.26
2018-07-19T20:41:53.627Z,30.41
2018-07-19T20:44:23.899Z,30.08
2018-07-19T20:47:04.548Z,31.49
2018-07-19T20:49:35.496Z,31.89
2018-07-19T20:52:10.188Z,31.37
2018-07-19T20:54:40.869Z,32.38
2018-07-19T20:57:19.150Z,32.19
2018-07-19T20:59:50.006Z,32.14
2018-07-19T21:02:24.059Z,33.31
2018-07-19T21:04:55.385Z,33.09
2018-07-19T21:07:28.464Z,33.40
2018-07-19T21:10:00.751Z,33.92
2018-07-19T21:12:33.982Z,33.41
2018-07-19T21:15:08.685Z,34.14
2018-07-19T21:17:42.228Z,33.91
2018-07-19T21:20:15.473Z,34.60
2018-07-19T21:22:46.822Z,34.82
2018-07-19T21:25:17.818Z,34.42
2018-07-19T21:27:54.080Z,35.46
2018-07-19T21:30:26.502Z,35.48
2018-07-19T21:32:57.954Z,36.03
2018-07-19T21:35:29.324Z,36.10
2018-07-19T21:38:01.331Z,36.39
2018-07-19T21:40:31.940Z,37.09
2018-07-19T21:43:03.670Z,35.88
2018-07-19T21:45:36.906Z,36.33
2018-07-19T21:48:16.638Z,35.78
2018-07-19T21:50:48.914Z,37.03
2018-07-19T21:53:22.095Z,36.98
2018-07-19T21:55:55.065Z,36.02
2018-07-19T21:58:34.391Z,36.59
2018-07-19T22:01:12.187Z,36.65
2018-07-19T22:03:45.508Z,37.65
2018-07-19T22:06:20.367Z,37.64
2018-07-19T22:08:51.537Z,36.63
2018-07-19T22:11:25.191Z,36.87
2018-07-19T22:13:58.935Z,37.28
2018-07-19T22:16:30.173Z,36.58
2018-07-19T22:19:02.583Z,36.92
2018-07-19T22:24:54.599Z,37.05
2018-07-19T22:27:26.261Z,37.22
2018-07-19T22:30:01.154Z,37.01
2018-07-19T22:32:41.571Z,35.38
2018-07-19T22:35:14.509Z,36.06
2018-07-19T22:37:46.227Z,35.95
2018-07-19T22:40:18.077Z,36.35
2018-07-19T22:42:51.158Z,35.76
2018-07-19T22:45:25.009Z,36.14
2018-07-19T22:47:57.459Z,36.60
2018-07-19T22:50:30.277Z,35.77
2018-07-19T22:53:03.716Z,35.98
2018-07-19T22:55:36.197Z,36.23
2018-07-19T22:58:08.751Z,35.83
2018-07-19T23:00:40.664Z,35.46
2018-07-19T23:03:19.764Z,35.75
2018-07-19T23:05:52.141Z,35.48
2018-07-19T23:08:23.989Z,36.02
2018-07-19T23:10:55.354Z,36.26
2018-07-19T23:13:29.991Z,36.35
2018-07-19T23:16:03.076Z,35.72
2018-07-19T23:18:34.759Z,35.74
2018-07-19T23:21:07.788Z,36.11
2018-07-19T23:23:39.149Z,36.77
2018-07-19T23:26:11.491Z,36.53
2018-07-19T23:28:42.315Z,37.01
2018-07-19T23:31:14.041Z,36.20
2018-07-19T23:33:45.812Z,37.06
2018-07-19T23:36:21.311Z,36.35
2018-07-19T23:39:10.738Z,36.26
2018-07-19T23:41:59.238Z,35.76
2018-07-19T23:44:38.280Z,36.24
2018-07-19T23:47:13.436Z,36.22
2018-07-19T23:49:45.341Z,36.34
2018-07-19T23:52:16.840Z,36.41
2018-07-19T23:54:47.109Z,36.97
2018-07-19T23:57:17.488Z,37.16
2018-07-19T23:59:49.171Z,37.13
